Eurocargo Salerno — 9HA3534 — position and weather

sailwx.info

Track history (hours):
 
Tides and Currents Weather Stations Pressure Air Temp Water Temp Dewpoint Dewpoint Depression Visibility Wind Speed Wind Dir Waves Ship Positions

Eurocargo Salerno

Last reported at 2018-Jan-20 21:00 UTC. Time now 2018-Jan-20 21:01 UTC.
Position N 38°08' E 013°22'.

Length 195 m; draft 6.6 m.

Type: Cargo ship. MMSI: 229706000.

Date/timePositionNaut miles runAvg speedWind from/ knotsBaromVisibWave heightAir tempDewpointWater temp
2018-Jan-20 21:00N 38°08' E 013°22'0 0.0
2018-Jan-20 20:30N 38°08' E 013°22'0 0.0
2018-Jan-20 20:00N 38°08' E 013°22'0 0.0
2018-Jan-20 19:30N 38°08' E 013°22'0 0.0
2018-Jan-20 19:00N 38°08' E 013°22'0 0.0
2018-Jan-20 18:27N 38°08' E 013°22'0 0.0
2018-Jan-20 18:00N 38°08' E 013°22'0 0.0
2018-Jan-20 17:30N 38°08' E 013°22'0 0.0
2018-Jan-20 17:00N 38°08' E 013°22'0 0.0
2018-Jan-20 16:30N 38°08' E 013°22'0 0.0
2018-Jan-20 16:00N 38°08' E 013°22'0 0.0
2018-Jan-20 15:27N 38°08' E 013°22'0 0.0
2018-Jan-20 15:00N 38°08' E 013°22'0 0.0
2018-Jan-20 14:27N 38°08' E 013°22'0 0.0
2018-Jan-20 14:00N 38°08' E 013°22'0 0.0
2018-Jan-20 13:27N 38°08' E 013°22'0 0.0
2018-Jan-20 13:00N 38°08' E 013°22'0 0.0
2018-Jan-20 12:30N 38°08' E 013°22'0 0.0
2018-Jan-20 12:00N 38°08' E 013°22'0 0.0
2018-Jan-20 11:30N 38°08' E 013°22'0 0.0
2018-Jan-20 11:00N 38°08' E 013°22'0 0.0
2018-Jan-20 10:30N 38°08' E 013°22'0 0.0
2018-Jan-20 10:00N 38°08' E 013°22'0 0.0
2018-Jan-20 09:30N 38°08' E 013°22'0 0.0
2018-Jan-20 09:00N 38°08' E 013°22'0 0.0
2018-Jan-20 08:30N 38°08' E 013°22'0 0.0
2018-Jan-20 07:57N 38°08' E 013°22'0 0.0
2018-Jan-20 07:30N 38°08' E 013°22'0 0.0
2018-Jan-20 07:00N 38°08' E 013°22'0 0.0
2018-Jan-20 06:27N 38°08' E 013°22'0 0.0
2018-Jan-20 05:57N 38°08' E 013°22'0 0.1
2018-Jan-20 05:30N 38°08' E 013°22'0 0.9
2018-Jan-20 05:00N 38°08' E 013°22'0 0.0
2018-Jan-20 04:28N 38°08' E 013°22'0 0.0
2018-Jan-20 03:58N 38°08' E 013°22'0 0.0
2018-Jan-20 03:28N 38°08' E 013°22'0 0.0
2018-Jan-20 02:58N 38°08' E 013°22'0 0.0
2018-Jan-20 02:28N 38°08' E 013°22'0 0.0
2018-Jan-20 01:58N 38°08' E 013°22'0 0.0
2018-Jan-20 01:28N 38°08' E 013°22'0 0.0
2018-Jan-20 00:58N 38°08' E 013°22'0 0.0
2018-Jan-20 00:28N 38°08' E 013°22'0 0.0
2018-Jan-19 23:58N 38°08' E 013°22'0 0.0
2018-Jan-19 23:28N 38°08' E 013°22'0 0.0
2018-Jan-19 22:58N 38°08' E 013°22'0 0.0
2018-Jan-19 22:30N 38°08' E 013°22'0 0.8
2018-Jan-19 22:01N 38°08' E 013°22'4 7.9
2018-Jan-19 21:30N 38°11' E 013°25'815.7
2018-Jan-19 21:01N 38°18' E 013°29'815.5
2018-Jan-19 20:31N 38°25' E 013°33'815.6
2018-Jan-19 20:01N 38°33' E 013°36'915.8
2018-Jan-19 19:28N 38°41' E 013°40'295 9.1
2018-Jan-18 11:09N 42°57' E 010°26'415.7
2018-Jan-18 10:55N 42°59' E 010°21'715.6
2018-Jan-18 10:28N 43°02' E 010°13'715.8
2018-Jan-18 10:00N 43°06' E 010°05'7013.9
2018-Jan-18 04:58N 44°03' E 009°08'715.1
2018-Jan-18 04:31N 44°09' E 009°04'815.2
2018-Jan-18 04:01N 44°16' E 008°59'714.5
2018-Jan-18 03:30N 44°23' E 008°57'3 4.9
2018-Jan-18 02:57N 44°24' E 008°53'0 0.0
2018-Jan-18 02:27N 44°24' E 008°53'0 0.0
2018-Jan-18 01:57N 44°24' E 008°53'0 0.0
2018-Jan-18 01:27N 44°24' E 008°53'0 0.0
2018-Jan-18 00:57N 44°24' E 008°53'0 0.0
2018-Jan-18 00:00N 44°24' E 008°53'0 0.0
2018-Jan-17 23:57N 44°24' E 008°53'  
2018-Jan-12 14:59N 38°08' E 013°22'0 0.0
2018-Jan-12 14:29N 38°08' E 013°22'0 0.6
2018-Jan-12 14:00N 38°08' E 013°22'3 6.0
2018-Jan-12 13:30N 38°10' E 013°25'815.6
2018-Jan-12 13:00N 38°17' E 013°29'815.2
2018-Jan-12 12:30N 38°24' E 013°32'815.1
2018-Jan-12 12:00N 38°31' E 013°36'814.8
2018-Jan-12 11:29N 38°38' E 013°40'118 7.7
2018-Jan-11 20:08N 40°35' E 013°57'214.8
2018-Jan-11 20:00N 40°36' E 013°55'18314.9
2018-Jan-11 07:43N 42°23' E 010°37'515.9
2018-Jan-11 07:26N 42°26' E 010°32'816.0
2018-Jan-11 06:57N 42°30' E 010°23'715.7
2018-Jan-11 06:29N 42°34' E 010°15'2215.8
2018-Jan-11 05:07N 42°47' E 009°51'215.9
2018-Jan-11 04:59N 42°48' E 009°48'1115.1
2018-Jan-11 04:14N 42°56' E 009°37'916.0
2018-Jan-11 03:40N 43°04' E 009°34'316.4
2018-Jan-11 03:30N 43°07' E 009°33'816.4
2018-Jan-11 03:00N 43°15' E 009°29'815.9
2018-Jan-11 02:30N 43°22' E 009°25'815.7
2018-Jan-11 02:00N 43°30' E 009°21'815.6
2018-Jan-11 01:30N 43°37' E 009°18'815.8
2018-Jan-11 01:00N 43°44' E 009°14'815.7
2018-Jan-11 00:30N 43°52' E 009°11'815.6
2018-Jan-11 00:00N 43°59' E 009°08'815.4
2018-Jan-10 23:30N 44°06' E 009°04'713.8
2018-Jan-10 23:00N 44°13' E 009°01'714.1
2018-Jan-10 22:30N 44°20' E 008°58'510.2
2018-Jan-10 22:00N 44°24' E 008°54'1 1.2
2018-Jan-10 21:25N 44°24' E 008°53'0 0.0
2018-Jan-10 20:55N 44°24' E 008°53'  
Track history (hours):
 
Tides and Currents Weather Stations Pressure Air Temp Water Temp Dewpoint Dewpoint Depression Visibility Wind Speed Wind Dir Waves Ship Positions

Eurocargo Salerno

Last reported at 2018-Jan-20 21:00 UTC. Time now 2018-Jan-20 21:01 UTC.
Position N 38°08' E 013°22'.

Length 195 m; draft 6.6 m.

Type: Cargo ship. MMSI: 229706000.

Date/timePositionNaut miles runAvg speedWind from/ knotsBaromVisibWave heightAir tempDewpointWater temp
2018-Jan-20 21:00N 38°08' E 013°22'0 0.0
2018-Jan-20 20:30N 38°08' E 013°22'0 0.0
2018-Jan-20 20:00N 38°08' E 013°22'0 0.0
2018-Jan-20 19:30N 38°08' E 013°22'0 0.0
2018-Jan-20 19:00N 38°08' E 013°22'0 0.0
2018-Jan-20 18:27N 38°08' E 013°22'0 0.0
2018-Jan-20 18:00N 38°08' E 013°22'0 0.0
2018-Jan-20 17:30N 38°08' E 013°22'0 0.0
2018-Jan-20 17:00N 38°08' E 013°22'0 0.0
2018-Jan-20 16:30N 38°08' E 013°22'0 0.0
2018-Jan-20 16:00N 38°08' E 013°22'0 0.0
2018-Jan-20 15:27N 38°08' E 013°22'0 0.0
2018-Jan-20 15:00N 38°08' E 013°22'0 0.0
2018-Jan-20 14:27N 38°08' E 013°22'0 0.0
2018-Jan-20 14:00N 38°08' E 013°22'0 0.0
2018-Jan-20 13:27N 38°08' E 013°22'0 0.0
2018-Jan-20 13:00N 38°08' E 013°22'0 0.0
2018-Jan-20 12:30N 38°08' E 013°22'0 0.0
2018-Jan-20 12:00N 38°08' E 013°22'0 0.0
2018-Jan-20 11:30N 38°08' E 013°22'0 0.0
2018-Jan-20 11:00N 38°08' E 013°22'0 0.0
2018-Jan-20 10:30N 38°08' E 013°22'0 0.0
2018-Jan-20 10:00N 38°08' E 013°22'0 0.0
2018-Jan-20 09:30N 38°08' E 013°22'0 0.0
2018-Jan-20 09:00N 38°08' E 013°22'0 0.0
2018-Jan-20 08:30N 38°08' E 013°22'0 0.0
2018-Jan-20 07:57N 38°08' E 013°22'0 0.0
2018-Jan-20 07:30N 38°08' E 013°22'0 0.0
2018-Jan-20 07:00N 38°08' E 013°22'0 0.0
2018-Jan-20 06:27N 38°08' E 013°22'0 0.0
2018-Jan-20 05:57N 38°08' E 013°22'0 0.1
2018-Jan-20 05:30N 38°08' E 013°22'0 0.9
2018-Jan-20 05:00N 38°08' E 013°22'0 0.0
2018-Jan-20 04:28N 38°08' E 013°22'0 0.0
2018-Jan-20 03:58N 38°08' E 013°22'0 0.0
2018-Jan-20 03:28N 38°08' E 013°22'0 0.0
2018-Jan-20 02:58N 38°08' E 013°22'0 0.0
2018-Jan-20 02:28N 38°08' E 013°22'0 0.0
2018-Jan-20 01:58N 38°08' E 013°22'0 0.0
2018-Jan-20 01:28N 38°08' E 013°22'0 0.0
2018-Jan-20 00:58N 38°08' E 013°22'0 0.0
2018-Jan-20 00:28N 38°08' E 013°22'0 0.0
2018-Jan-19 23:58N 38°08' E 013°22'0 0.0
2018-Jan-19 23:28N 38°08' E 013°22'0 0.0
2018-Jan-19 22:58N 38°08' E 013°22'0 0.0
2018-Jan-19 22:30N 38°08' E 013°22'0 0.8
2018-Jan-19 22:01N 38°08' E 013°22'4 7.9
2018-Jan-19 21:30N 38°11' E 013°25'815.7
2018-Jan-19 21:01N 38°18' E 013°29'815.5
2018-Jan-19 20:31N 38°25' E 013°33'815.6
2018-Jan-19 20:01N 38°33' E 013°36'915.8
2018-Jan-19 19:28N 38°41' E 013°40'295 9.1
2018-Jan-18 11:09N 42°57' E 010°26'415.7
2018-Jan-18 10:55N 42°59' E 010°21'715.6
2018-Jan-18 10:28N 43°02' E 010°13'715.8
2018-Jan-18 10:00N 43°06' E 010°05'7013.9
2018-Jan-18 04:58N 44°03' E 009°08'715.1
2018-Jan-18 04:31N 44°09' E 009°04'815.2
2018-Jan-18 04:01N 44°16' E 008°59'714.5
2018-Jan-18 03:30N 44°23' E 008°57'3 4.9
2018-Jan-18 02:57N 44°24' E 008°53'0 0.0
2018-Jan-18 02:27N 44°24' E 008°53'0 0.0
2018-Jan-18 01:57N 44°24' E 008°53'0 0.0
2018-Jan-18 01:27N 44°24' E 008°53'0 0.0
2018-Jan-18 00:57N 44°24' E 008°53'0 0.0
2018-Jan-18 00:00N 44°24' E 008°53'0 0.0
2018-Jan-17 23:57N 44°24' E 008°53'  
2018-Jan-12 14:59N 38°08' E 013°22'0 0.0
2018-Jan-12 14:29N 38°08' E 013°22'0 0.6
2018-Jan-12 14:00N 38°08' E 013°22'3 6.0
2018-Jan-12 13:30N 38°10' E 013°25'815.6
2018-Jan-12 13:00N 38°17' E 013°29'815.2
2018-Jan-12 12:30N 38°24' E 013°32'815.1
2018-Jan-12 12:00N 38°31' E 013°36'814.8
2018-Jan-12 11:29N 38°38' E 013°40'118 7.7
2018-Jan-11 20:08N 40°35' E 013°57'214.8
2018-Jan-11 20:00N 40°36' E 013°55'18314.9
2018-Jan-11 07:43N 42°23' E 010°37'515.9
2018-Jan-11 07:26N 42°26' E 010°32'816.0
2018-Jan-11 06:57N 42°30' E 010°23'715.7
2018-Jan-11 06:29N 42°34' E 010°15'2215.8
2018-Jan-11 05:07N 42°47' E 009°51'215.9
2018-Jan-11 04:59N 42°48' E 009°48'1115.1
2018-Jan-11 04:14N 42°56' E 009°37'916.0
2018-Jan-11 03:40N 43°04' E 009°34'316.4
2018-Jan-11 03:30N 43°07' E 009°33'816.4
2018-Jan-11 03:00N 43°15' E 009°29'815.9
2018-Jan-11 02:30N 43°22' E 009°25'815.7
2018-Jan-11 02:00N 43°30' E 009°21'815.6
2018-Jan-11 01:30N 43°37' E 009°18'815.8
2018-Jan-11 01:00N 43°44' E 009°14'815.7
2018-Jan-11 00:30N 43°52' E 009°11'815.6
2018-Jan-11 00:00N 43°59' E 009°08'815.4
2018-Jan-10 23:30N 44°06' E 009°04'713.8
2018-Jan-10 23:00N 44°13' E 009°01'714.1
2018-Jan-10 22:30N 44°20' E 008°58'510.2
2018-Jan-10 22:00N 44°24' E 008°54'1 1.2
2018-Jan-10 21:25N 44°24' E 008°53'0 0.0
2018-Jan-10 20:55N 44°24' E 008°53'  

Dump ship's entire track history